Eastry, United Kingdom
Current Conditions -  °F | °C
As of 12:20 PM on Friday 24 Oct 2014 (Local Time) from EGMD Reporting Station
Broken Clouds Broken Clouds  
Wind Chill: 16°   Ceiling: 300
Heat Index: 16°   Visibility: 6mi
Dew Point: 16°   Wind: 17mph
Humidity: 100%   Direction: 210°SSW
Pressure: 30"   Gusts: NA
Location:  51.25°N, 1.31°E
Report Text: EGMD 241120Z 21015KT 9999 6000SE BKN003 16/16 Q1016
Loading
Personal Weather Stations






























Interactive Weather Map
Tropical Storm Tracking
New forecast layout! Learn more

10-Day Weather Forecast

Advertisements
Track Severe Weather on mobile